Time;durP1;ratioP1;P1;durP2;ratioP2;P2;SDS_P1;SDS_P2;PMS_P1;PMS_P2;Temp;Humidity;BMP_temperature;BMP_pressure;BME280_temperature;BME280_humidity;BME280_pressure;Samples;Min_cycle;Max_cycle;Signal;HPM_P1;HPM_P2
2021/07/30 00:01:20;;;;;;;11.53;9.50;;;18.30;99.90;;;;;;5018905;28;20455;-89
2021/07/30 00:03:48;;;;;;;9.40;8.50;;;18.20;99.90;;;;;;5032292;28;20526;-89
2021/07/30 00:06:15;;;;;;;9.80;8.90;;;18.20;99.90;;;;;;5024319;28;20454;-89
2021/07/30 00:08:42;;;;;;;10.63;9.00;;;18.10;99.90;;;;;;5020491;28;20464;-88
2021/07/30 00:11:08;;;;;;;9.40;8.50;;;18.00;99.90;;;;;;5021483;28;20489;-89
2021/07/30 00:13:35;;;;;;;11.77;9.20;;;18.00;99.90;;;;;;5022393;28;20446;-89
2021/07/30 00:16:02;;;;;;;13.97;10.83;;;18.00;99.90;;;;;;5016216;28;20483;-89
2021/07/30 00:18:29;;;;;;;11.57;10.37;;;18.00;99.90;;;;;;5016052;28;20836;-88
2021/07/30 00:20:57;;;;;;;12.80;9.17;;;18.10;99.90;;;;;;5015954;28;20453;-88
2021/07/30 00:23:24;;;;;;;9.93;8.57;;;18.10;99.90;;;;;;5016384;28;20458;-89
2021/07/30 00:25:50;;;;;;;12.90;10.47;;;18.00;99.90;;;;;;5016675;28;20478;-89
2021/07/30 00:28:17;;;;;;;12.23;9.50;;;18.00;99.90;;;;;;5016674;28;20454;-89
2021/07/30 00:30:44;;;;;;;11.30;10.20;;;17.90;99.90;;;;;;5030404;28;20469;-88
2021/07/30 00:33:11;;;;;;;10.83;9.67;;;17.90;99.90;;;;;;5039977;28;20435;-89
2021/07/30 00:35:37;;;;;;;11.20;10.00;;;17.90;99.90;;;;;;5030445;28;20471;-88
2021/07/30 00:38:06;;;;;;;10.90;9.60;;;17.90;99.90;;;;;;5017530;28;20441;-88
2021/07/30 00:40:32;;;;;;;10.77;9.70;;;17.80;99.90;;;;;;5016435;28;20442;-89
2021/07/30 00:43:02;;;;;;;11.03;9.90;;;17.70;99.90;;;;;;5016607;28;20477;-88
2021/07/30 00:45:29;;;;;;;13.50;11.00;;;17.70;99.90;;;;;;5016147;28;20458;-89
2021/07/30 00:47:55;;;;;;;12.30;9.83;;;17.70;99.90;;;;;;5016141;28;20453;-89
2021/07/30 00:50:22;;;;;;;11.43;10.23;;;17.60;99.90;;;;;;5019821;28;20468;-89
2021/07/30 00:52:51;;;;;;;12.73;11.27;;;17.60;99.90;;;;;;5026368;28;20989;-89
2021/07/30 00:55:20;;;;;;;12.23;11.03;;;17.60;99.90;;;;;;5015904;28;20454;-89
2021/07/30 00:57:47;;;;;;;11.77;10.37;;;17.60;99.90;;;;;;5016434;28;20457;-88
2021/07/30 01:00:15;;;;;;;11.23;10.03;;;17.60;99.90;;;;;;5015473;28;20535;-89
2021/07/30 01:02:41;;;;;;;12.90;11.60;;;17.50;99.90;;;;;;5017443;28;20463;-89
2021/07/30 01:05:10;;;;;;;12.43;10.67;;;17.50;99.90;;;;;;4999710;28;20474;-89
2021/07/30 01:07:36;;;;;;;16.80;10.80;;;17.40;99.90;;;;;;5020959;28;20431;-89
2021/07/30 01:10:05;;;;;;;11.50;10.30;;;17.40;99.90;;;;;;5039333;28;20473;-89
2021/07/30 01:12:33;;;;;;;10.33;9.43;;;17.40;99.90;;;;;;5039334;28;20456;-89
2021/07/30 01:14:59;;;;;;;13.33;10.50;;;17.40;99.90;;;;;;5030307;28;20852;-88
2021/07/30 01:17:26;;;;;;;12.33;11.07;;;17.40;99.90;;;;;;5020872;28;20442;-88
2021/07/30 01:19:53;;;;;;;11.50;10.40;;;17.30;99.90;;;;;;5019354;28;20450;-89
2021/07/30 01:22:23;;;;;;;14.27;10.70;;;17.30;99.90;;;;;;5017202;28;20443;-88
2021/07/30 01:24:52;;;;;;;12.53;11.20;;;17.30;99.90;;;;;;5015979;28;20435;-88
2021/07/30 01:27:21;;;;;;;11.33;9.93;;;17.20;99.90;;;;;;5023424;28;20430;-89
2021/07/30 01:29:48;;;;;;;12.53;9.40;;;17.20;99.90;;;;;;5018156;28;20472;-89
2021/07/30 01:32:19;;;;;;;12.10;10.83;;;17.10;99.90;;;;;;5019238;28;20803;-89
2021/07/30 01:34:46;;;;;;;9.70;8.70;;;17.10;99.90;;;;;;5029298;28;20450;-88
2021/07/30 01:37:13;;;;;;;11.87;10.10;;;17.00;99.90;;;;;;5022944;28;20521;-90
2021/07/30 01:39:42;;;;;;;11.30;10.10;;;17.00;99.90;;;;;;5023857;28;20441;-89
2021/07/30 01:42:10;;;;;;;13.37;11.33;;;17.00;99.90;;;;;;5025692;28;20966;-89
2021/07/30 01:44:38;;;;;;;14.00;9.93;;;17.00;99.90;;;;;;5025702;28;20448;-89
2021/07/30 01:47:06;;;;;;;15.00;12.13;;;17.00;99.90;;;;;;5020553;28;21061;-89
2021/07/30 01:49:33;;;;;;;13.90;11.60;;;16.90;99.90;;;;;;5016804;28;20469;-88
2021/07/30 01:52:00;;;;;;;16.87;11.97;;;16.90;99.90;;;;;;5016698;28;20947;-90
2021/07/30 01:54:27;;;;;;;13.83;12.43;;;16.80;99.90;;;;;;5021861;28;20454;-88
2021/07/30 01:56:53;;;;;;;13.17;11.77;;;16.80;99.90;;;;;;5018762;28;20470;-88
2021/07/30 01:59:22;;;;;;;11.80;10.60;;;16.80;99.90;;;;;;5025990;28;20465;-89
2021/07/30 02:01:48;;;;;;;11.80;10.73;;;16.80;99.90;;;;;;5017387;28;20819;-87
2021/07/30 02:04:18;;;;;;;13.57;11.37;;;16.80;99.90;;;;;;5015528;28;20450;-89
2021/07/30 02:06:45;;;;;;;12.07;10.50;;;16.80;99.90;;;;;;5014438;28;20463;-89
2021/07/30 02:09:11;;;;;;;12.07;10.87;;;16.70;99.90;;;;;;5014543;28;20450;-89
2021/07/30 02:11:40;;;;;;;13.27;11.07;;;16.70;99.90;;;;;;5014298;28;20494;-88
2021/07/30 02:14:15;;;;;;;12.00;10.70;;;16.70;99.90;;;;;;5015080;28;20953;-89
2021/07/30 02:28:04;;;;;;;13.43;12.07;;;16.60;99.90;;;;;;5000399;28;20454;-91
2021/07/30 02:38:08;;;;;;;12.67;10.00;;;16.60;99.90;;;;;;4953775;29;20485;-90
2021/07/30 02:41:08;;;;;;;11.30;10.20;;;16.50;99.90;;;;;;4899160;29;20457;-91
2021/07/30 03:01:49;;;;;;;11.73;10.67;;;16.40;99.90;;;;;;4970839;28;20476;-90
2021/07/30 03:35:26;;;;;;;10.93;9.80;;;16.00;99.90;;;;;;5004471;28;20481;-92
2021/07/30 03:38:14;;;;;;;11.53;9.87;;;16.00;99.90;;;;;;5010246;28;20472;-92
2021/07/30 03:44:33;;;;;;;14.80;11.67;;;15.90;99.90;;;;;;4978051;28;20442;-92
2021/07/30 03:55:00;;;;;;;12.20;10.63;;;15.90;99.90;;;;;;4874611;29;20445;-91
2021/07/30 03:58:24;;;;;;;12.50;11.30;;;15.90;99.90;;;;;;5044567;28;20522;-93
2021/07/30 04:01:24;;;;;;;11.93;10.47;;;15.90;99.90;;;;;;5015728;28;20957;-93
2021/07/30 04:06:59;;;;;;;11.93;10.67;;;15.80;99.90;;;;;;5040596;28;20884;-86
2021/07/30 04:09:26;;;;;;;10.80;9.70;;;15.80;99.90;;;;;;5036261;28;20941;-85
2021/07/30 04:11:54;;;;;;;15.77;11.40;;;15.80;99.90;;;;;;5036332;28;20521;-86
2021/07/30 04:14:21;;;;;;;16.63;10.57;;;15.80;99.90;;;;;;5036967;28;20961;-86
2021/07/30 04:16:48;;;;;;;12.93;10.67;;;15.80;99.90;;;;;;5040541;28;20469;-85
2021/07/30 04:19:14;;;;;;;14.13;10.73;;;15.80;99.90;;;;;;5052276;28;20483;-86
2021/07/30 04:21:41;;;;;;;13.00;11.80;;;15.80;99.90;;;;;;5054465;28;20443;-85
2021/07/30 04:24:08;;;;;;;13.90;11.80;;;15.90;99.90;;;;;;5036890;28;20456;-86
2021/07/30 04:26:35;;;;;;;14.97;12.77;;;15.90;99.90;;;;;;5052029;28;20472;-86
2021/07/30 04:29:05;;;;;;;13.07;11.20;;;15.90;99.90;;;;;;5035641;28;20454;-85
2021/07/30 04:31:32;;;;;;;13.80;12.37;;;15.90;99.90;;;;;;5035196;28;20489;-86
2021/07/30 04:33:58;;;;;;;12.80;11.60;;;16.00;99.90;;;;;;5036986;28;20494;-84
2021/07/30 04:36:25;;;;;;;10.87;9.83;;;16.00;99.90;;;;;;5070002;28;20464;-84
2021/07/30 04:38:52;;;;;;;13.07;11.43;;;16.00;99.90;;;;;;5063022;28;20922;-85
2021/07/30 04:41:18;;;;;;;12.00;10.80;;;16.00;99.90;;;;;;5041078;28;20499;-84
2021/07/30 04:43:45;;;;;;;11.70;10.60;;;16.00;99.90;;;;;;5037526;28;20445;-85
2021/07/30 04:46:17;;;;;;;15.00;11.60;;;16.00;99.90;;;;;;5037369;28;20942;-85
2021/07/30 04:48:45;;;;;;;15.13;11.70;;;16.00;99.90;;;;;;5036731;28;20446;-85
2021/07/30 04:51:12;;;;;;;13.53;12.00;;;16.00;99.90;;;;;;5036184;28;20488;-85
2021/07/30 04:53:39;;;;;;;11.43;10.27;;;16.00;99.90;;;;;;5035818;28;20477;-85
2021/07/30 04:56:06;;;;;;;11.80;10.70;;;16.00;99.90;;;;;;5035026;28;20511;-86
2021/07/30 04:58:33;;;;;;;13.77;11.60;;;16.10;99.90;;;;;;5035516;28;20452;-84
2021/07/30 05:01:04;;;;;;;12.73;11.37;;;16.10;99.90;;;;;;5036946;28;20452;-85
2021/07/30 05:03:32;;;;;;;14.17;12.37;;;16.10;99.90;;;;;;5039021;28;20973;-86
2021/07/30 05:05:59;;;;;;;11.90;10.73;;;16.20;99.90;;;;;;5046012;28;20495;-88
2021/07/30 05:08:25;;;;;;;13.43;11.00;;;16.10;99.90;;;;;;5034013;28;20453;-87
2021/07/30 05:10:52;;;;;;;12.83;11.30;;;16.10;99.90;;;;;;5038267;28;20453;-87
2021/07/30 05:13:20;;;;;;;15.57;11.50;;;16.50;99.90;;;;;;5037811;28;20445;-88
2021/07/30 05:15:46;;;;;;;12.23;10.90;;;16.90;99.90;;;;;;5035053;28;20462;-88
2021/07/30 05:18:13;;;;;;;12.00;10.77;;;17.50;99.90;;;;;;5034276;28;20473;-88
2021/07/30 05:20:41;;;;;;;15.37;11.40;;;18.10;99.90;;;;;;5035027;28;20457;-89
2021/07/30 05:23:09;;;;;;;12.10;9.50;;;18.60;99.90;;;;;;5034789;28;20458;-88
2021/07/30 05:25:36;;;;;;;10.93;9.60;;;19.10;99.90;;;;;;5034719;28;20544;-89
2021/07/30 05:28:03;;;;;;;12.13;10.20;;;19.60;99.90;;;;;;5034334;28;20468;-88
2021/07/30 05:30:31;;;;;;;10.00;9.10;;;20.10;99.90;;;;;;5034396;28;20460;-88
2021/07/30 05:32:58;;;;;;;13.63;10.23;;;20.30;99.90;;;;;;5032206;28;20480;-85
2021/07/30 05:35:24;;;;;;;10.77;9.67;;;20.70;99.90;;;;;;5046093;28;20943;-87
2021/07/30 05:37:52;;;;;;;9.77;8.80;;;21.10;99.90;;;;;;5037658;28;20485;-89
2021/07/30 05:40:19;;;;;;;13.00;10.13;;;21.40;99.90;;;;;;5034021;28;20458;-88
2021/07/30 05:42:46;;;;;;;9.87;8.80;;;21.80;99.90;;;;;;5048142;28;20454;-92
2021/07/30 05:45:13;;;;;;;11.00;9.80;;;22.00;99.90;;;;;;5050314;28;20445;-89
2021/07/30 06:11:31;;;;;;;10.93;9.70;;;25.30;92.50;;;;;;4870479;29;20492;-90
2021/07/30 06:18:46;;;;;;;10.10;9.10;;;26.00;90.60;;;;;;4886609;29;20483;-90
2021/07/30 06:52:46;;;;;;;9.03;7.20;;;28.70;74.90;;;;;;4945528;28;20486;-92
2021/07/30 11:10:31;;;;;;;6.70;6.00;;;30.70;54.90;;;;;;4790955;29;20450;-86
2021/07/30 11:13:01;;;;;;;6.57;5.97;;;30.70;55.90;;;;;;4842377;29;21134;-87
2021/07/30 11:15:33;;;;;;;6.30;5.77;;;30.50;55.50;;;;;;4969108;28;20502;-85
2021/07/30 11:18:03;;;;;;;7.03;6.40;;;30.30;55.70;;;;;;5019757;28;20553;-85
2021/07/30 11:20:35;;;;;;;6.53;6.03;;;30.50;55.80;;;;;;5021579;28;20439;-85
2021/07/30 11:23:06;;;;;;;7.47;6.87;;;30.50;55.40;;;;;;5022765;28;20492;-85
2021/07/30 11:25:34;;;;;;;6.67;6.17;;;30.70;55.20;;;;;;5049270;28;20452;-86
2021/07/30 11:28:03;;;;;;;6.97;6.20;;;30.80;55.90;;;;;;5047447;28;20544;-86
2021/07/30 11:30:31;;;;;;;7.30;6.60;;;31.40;54.00;;;;;;5044827;28;20445;-86
2021/07/30 11:32:59;;;;;;;7.17;6.57;;;34.00;51.20;;;;;;5044123;28;20449;-85
2021/07/30 11:35:29;;;;;;;6.43;5.83;;;34.40;49.00;;;;;;5043608;28;20445;-86
2021/07/30 11:38:01;;;;;;;6.47;5.97;;;34.50;49.40;;;;;;5041462;28;20472;-90
2021/07/30 11:40:27;;;;;;;7.57;6.97;;;36.40;47.20;;;;;;5040579;28;20457;-85
2021/07/30 11:43:08;;;;;;;6.77;6.20;;;37.60;44.70;;;;;;5043482;28;20473;-87
2021/07/30 11:45:37;;;;;;;6.50;6.00;;;39.40;41.90;;;;;;5058408;23;20492;-84
2021/07/30 11:48:10;;;;;;;6.93;6.20;;;40.50;41.00;;;;;;5039181;28;20481;-84
2021/07/30 11:50:38;;;;;;;7.30;6.70;;;41.40;39.00;;;;;;5040308;28;20445;-84
2021/07/30 11:53:08;;;;;;;6.43;5.83;;;40.10;37.90;;;;;;5040575;28;20441;-86
2021/07/30 11:55:35;;;;;;;7.23;6.63;;;39.50;39.50;;;;;;5050569;28;20450;-85
2021/07/30 11:58:13;;;;;;;7.27;6.57;;;38.00;41.00;;;;;;5051820;28;20444;-86
2021/07/30 12:00:40;;;;;;;7.40;6.90;;;38.40;41.90;;;;;;5048209;28;20441;-85
2021/07/30 12:03:18;;;;;;;6.70;6.10;;;39.70;40.70;;;;;;5049561;28;20511;-86
2021/07/30 12:05:45;;;;;;;7.87;7.17;;;41.90;38.00;;;;;;5059055;28;20491;-86
2021/07/30 12:08:12;;;;;;;8.67;7.70;;;42.60;36.80;;;;;;5056478;28;20448;-84
2021/07/30 12:10:40;;;;;;;6.53;6.03;;;43.30;36.00;;;;;;5056639;28;20440;-85
2021/07/30 12:13:09;;;;;;;7.07;6.57;;;43.90;34.40;;;;;;5056416;28;20448;-85
2021/07/30 12:15:37;;;;;;;6.90;6.40;;;44.50;33.20;;;;;;5058327;28;20464;-85
2021/07/30 12:18:05;;;;;;;7.07;6.43;;;43.80;33.20;;;;;;5049055;28;20449;-85
2021/07/30 12:20:33;;;;;;;7.00;6.50;;;42.90;34.30;;;;;;5035949;28;20460;-85
2021/07/30 12:23:03;;;;;;;7.40;6.90;;;43.50;34.00;;;;;;5039407;28;20483;-85
2021/07/30 12:25:36;;;;;;;5.90;5.50;;;41.90;35.40;;;;;;5056010;28;20468;-85
2021/07/30 12:28:12;;;;;;;7.60;7.00;;;40.10;37.30;;;;;;5055550;28;20475;-85
2021/07/30 12:30:40;;;;;;;6.67;6.17;;;39.00;39.20;;;;;;5055608;28;20986;-85
2021/07/30 12:33:25;;;;;;;7.43;6.70;;;38.70;40.20;;;;;;5052172;28;20445;-84
2021/07/30 12:36:02;;;;;;;7.43;6.93;;;37.50;41.70;;;;;;5044153;28;20441;-85
2021/07/30 12:38:29;;;;;;;7.67;7.07;;;35.80;44.50;;;;;;5047680;28;20453;-84
2021/07/30 12:41:17;;;;;;;7.27;6.77;;;35.10;45.80;;;;;;5046074;28;20868;-85
2021/07/30 12:43:45;;;;;;;9.30;8.20;;;35.40;45.90;;;;;;5046891;28;20477;-85
2021/07/30 12:46:12;;;;;;;7.50;6.80;;;35.70;45.40;;;;;;5041017;28;20446;-86
2021/07/30 12:48:48;;;;;;;7.23;6.63;;;35.50;45.80;;;;;;5045602;28;20448;-86
2021/07/30 12:51:25;;;;;;;7.67;7.00;;;34.80;47.00;;;;;;5040281;28;20488;-85
2021/07/30 12:54:02;;;;;;;9.07;6.57;;;35.30;46.80;;;;;;5037755;28;20479;-85
2021/07/30 12:56:49;;;;;;;6.80;6.20;;;36.70;44.70;;;;;;5035846;28;20456;-85
2021/07/30 12:59:17;;;;;;;7.97;6.97;;;37.40;44.20;;;;;;5046592;28;20433;-84
2021/07/30 13:01:44;;;;;;;6.93;6.33;;;38.50;42.50;;;;;;5062317;28;20463;-85
2021/07/30 13:04:12;;;;;;;6.70;6.27;;;38.80;40.80;;;;;;5055941;28;20871;-85
2021/07/30 13:06:39;;;;;;;7.33;6.83;;;39.50;40.80;;;;;;5049406;28;20535;-85
2021/07/30 13:09:14;;;;;;;8.33;7.53;;;40.20;39.30;;;;;;5043777;28;20449;-85
2021/07/30 13:11:42;;;;;;;7.33;6.70;;;38.80;39.70;;;;;;5049919;28;20927;-84
2021/07/30 13:14:09;;;;;;;7.80;7.20;;;38.70;41.40;;;;;;5045998;28;20488;-84
2021/07/30 13:16:37;;;;;;;8.50;7.80;;;39.40;40.10;;;;;;5046845;28;20956;-86
2021/07/30 13:19:04;;;;;;;7.90;7.27;;;39.80;39.40;;;;;;5046629;28;20853;-85
2021/07/30 13:21:31;;;;;;;7.33;6.73;;;40.40;38.50;;;;;;5046155;28;20441;-86
2021/07/30 13:23:57;;;;;;;8.07;7.37;;;40.30;38.60;;;;;;5047723;28;20487;-86
2021/07/30 13:26:24;;;;;;;7.43;6.93;;;38.90;39.60;;;;;;5046618;28;20495;-85
2021/07/30 13:28:51;;;;;;;7.67;7.07;;;37.50;41.60;;;;;;5044379;28;20430;-86
2021/07/30 13:31:17;;;;;;;8.13;7.30;;;36.80;43.10;;;;;;5045691;28;20456;-85
2021/07/30 13:33:45;;;;;;;7.90;7.20;;;37.00;43.30;;;;;;5045955;28;20448;-85
2021/07/30 13:36:12;;;;;;;7.93;7.30;;;38.30;42.10;;;;;;5045544;28;20449;-85
2021/07/30 13:38:39;;;;;;;8.10;7.50;;;39.70;40.90;;;;;;5045201;28;20626;-85
2021/07/30 13:41:11;;;;;;;12.20;10.97;;;39.80;39.70;;;;;;5043519;28;20445;-84
2021/07/30 13:43:39;;;;;;;9.33;7.07;;;39.10;40.10;;;;;;5049525;28;20488;-84
2021/07/30 13:46:06;;;;;;;6.93;6.43;;;37.80;41.60;;;;;;5054900;28;20430;-84
2021/07/30 13:48:33;;;;;;;7.23;6.73;;;37.60;43.90;;;;;;5052376;28;20453;-85
2021/07/30 13:51:02;;;;;;;8.00;7.40;;;37.90;42.20;;;;;;5044136;28;20449;-85
2021/07/30 13:53:29;;;;;;;7.60;7.00;;;37.90;42.00;;;;;;5044527;28;20473;-85
2021/07/30 13:55:55;;;;;;;7.97;7.37;;;37.80;42.20;;;;;;5043476;28;20538;-84
2021/07/30 13:58:22;;;;;;;7.50;6.90;;;37.80;41.80;;;;;;5047901;28;20441;-86
2021/07/30 14:00:50;;;;;;;7.50;6.90;;;37.20;43.00;;;;;;5045167;28;20471;-84
2021/07/30 14:03:17;;;;;;;9.40;7.20;;;37.80;42.60;;;;;;5047052;28;20487;-85
2021/07/30 14:05:45;;;;;;;7.97;7.27;;;38.40;42.20;;;;;;5064860;28;20457;-85
2021/07/30 14:08:13;;;;;;;8.27;7.57;;;39.20;40.80;;;;;;5067400;28;20421;-84
2021/07/30 14:10:39;;;;;;;8.47;7.27;;;39.40;40.20;;;;;;5055403;28;20443;-85
2021/07/30 14:13:09;;;;;;;9.97;9.17;;;39.50;40.70;;;;;;5068259;28;20428;-85
2021/07/30 14:15:36;;;;;;;8.73;8.03;;;38.70;40.80;;;;;;5047562;28;20467;-85
2021/07/30 14:18:04;;;;;;;9.43;8.63;;;37.50;42.00;;;;;;5043717;28;20444;-85
2021/07/30 14:20:32;;;;;;;9.67;8.93;;;36.40;44.40;;;;;;5046264;28;20452;-85
2021/07/30 14:22:59;;;;;;;8.07;7.43;;;36.20;44.50;;;;;;5048976;28;21022;-84
2021/07/30 14:25:28;;;;;;;9.87;9.07;;;36.70;44.50;;;;;;5056977;28;20498;-82
2021/07/30 14:27:55;;;;;;;8.53;7.90;;;37.20;43.40;;;;;;5053113;28;20475;-85
2021/07/30 14:30:22;;;;;;;8.10;7.40;;;37.30;43.50;;;;;;5046156;28;20449;-85
2021/07/30 14:32:49;;;;;;;8.50;7.90;;;37.40;43.20;;;;;;5042662;28;20437;-85
2021/07/30 14:35:16;;;;;;;8.40;7.70;;;37.00;43.70;;;;;;5043369;28;20845;-84
2021/07/30 14:37:42;;;;;;;8.07;7.47;;;36.80;44.90;;;;;;5044523;28;20444;-85
2021/07/30 14:40:09;;;;;;;8.53;7.93;;;36.40;44.50;;;;;;5041932;28;20445;-84
2021/07/30 14:42:37;;;;;;;8.40;7.60;;;36.20;45.30;;;;;;5044247;28;20984;-85
2021/07/30 14:45:05;;;;;;;7.90;7.30;;;36.00;45.80;;;;;;5043671;28;20832;-85
2021/07/30 14:47:33;;;;;;;8.00;7.37;;;35.90;45.80;;;;;;5042724;28;20474;-85
2021/07/30 14:50:00;;;;;;;9.13;8.43;;;35.80;46.20;;;;;;5043476;28;20440;-85
2021/07/30 14:52:27;;;;;;;8.90;8.20;;;35.70;46.50;;;;;;5044319;28;20440;-85
2021/07/30 14:54:54;;;;;;;9.07;8.27;;;35.10;47.30;;;;;;5057536;28;20468;-85
2021/07/30 14:57:20;;;;;;;8.27;7.60;;;34.30;48.60;;;;;;5059358;28;20448;-85
2021/07/30 14:59:48;;;;;;;8.90;8.20;;;33.30;50.70;;;;;;5042265;28;20817;-85
2021/07/30 15:02:15;;;;;;;8.00;7.40;;;33.10;51.70;;;;;;5062103;28;20431;-85
2021/07/30 15:04:42;;;;;;;9.30;8.57;;;32.80;52.00;;;;;;5060614;28;20487;-85
2021/07/30 15:07:09;;;;;;;9.00;8.00;;;32.60;53.20;;;;;;5046525;28;21068;-85
2021/07/30 15:09:36;;;;;;;9.17;8.37;;;32.30;53.00;;;;;;5047018;28;20444;-85
2021/07/30 15:12:03;;;;;;;9.00;8.20;;;32.10;53.70;;;;;;5046114;28;20443;-84
2021/07/30 15:14:30;;;;;;;8.20;7.30;;;32.00;53.50;;;;;;5046495;28;20459;-85
2021/07/30 15:16:58;;;;;;;11.20;9.30;;;31.70;54.40;;;;;;5045819;28;20543;-85
2021/07/30 15:19:25;;;;;;;10.50;8.20;;;31.40;54.80;;;;;;5043295;28;20449;-86
2021/07/30 15:21:51;;;;;;;8.63;8.03;;;31.30;55.20;;;;;;5046796;28;20523;-85
2021/07/30 15:24:18;;;;;;;9.10;7.90;;;31.30;55.00;;;;;;5043120;28;20499;-85
2021/07/30 15:26:45;;;;;;;8.77;7.97;;;31.10;56.10;;;;;;5045884;28;20452;-85
2021/07/30 15:29:11;;;;;;;9.27;8.37;;;31.10;56.40;;;;;;5046058;28;20444;-85
2021/07/30 15:31:39;;;;;;;10.17;9.13;;;31.30;55.60;;;;;;5044751;28;20441;-85
2021/07/30 15:34:10;;;;;;;9.37;8.57;;;31.30;55.90;;;;;;5063079;28;20487;-85
2021/07/30 15:36:38;;;;;;;9.00;8.30;;;31.30;56.00;;;;;;5059905;28;20453;-84
2021/07/30 15:39:06;;;;;;;7.60;7.00;;;31.30;55.60;;;;;;5059124;28;20437;-85
2021/07/30 15:41:33;;;;;;;12.10;10.90;;;31.30;56.10;;;;;;5060244;28;20444;-87
2021/07/30 15:44:02;;;;;;;8.57;7.83;;;31.40;55.70;;;;;;5047699;28;20484;-87
2021/07/30 15:46:29;;;;;;;7.80;7.10;;;31.40;55.90;;;;;;5044524;28;20977;-85
2021/07/30 15:48:56;;;;;;;7.80;7.10;;;31.30;56.60;;;;;;5042396;28;20455;-85
2021/07/30 15:51:23;;;;;;;8.03;7.33;;;31.10;56.50;;;;;;5047606;28;20442;-85
2021/07/30 15:53:50;;;;;;;7.60;7.00;;;31.10;56.80;;;;;;5048321;28;20472;-85
2021/07/30 15:56:17;;;;;;;7.77;7.13;;;31.00;57.30;;;;;;5044646;28;20818;-85
2021/07/30 15:58:44;;;;;;;8.20;7.50;;;31.00;57.30;;;;;;5042180;28;20459;-85
2021/07/30 16:01:12;;;;;;;8.20;7.50;;;30.90;57.90;;;;;;5045764;28;20461;-85
2021/07/30 16:03:38;;;;;;;7.13;6.63;;;30.70;57.90;;;;;;5042570;28;20484;-87
2021/07/30 16:06:05;;;;;;;7.07;6.57;;;30.70;58.00;;;;;;5048542;28;20819;-86
2021/07/30 16:08:33;;;;;;;8.13;7.37;;;30.60;58.10;;;;;;5050389;28;20445;-87
2021/07/30 16:11:12;;;;;;;8.80;8.03;;;30.60;58.40;;;;;;5049302;28;20555;-87
2021/07/30 16:13:40;;;;;;;8.30;7.70;;;30.50;58.70;;;;;;5050818;28;20444;-87
2021/07/30 16:16:09;;;;;;;8.43;7.60;;;30.40;58.80;;;;;;5048207;28;20857;-86
2021/07/30 16:18:36;;;;;;;8.03;7.33;;;30.30;58.80;;;;;;5044892;28;20449;-86
2021/07/30 16:21:03;;;;;;;8.30;7.60;;;30.20;59.60;;;;;;5048551;28;20440;-89
2021/07/30 16:23:30;;;;;;;8.17;7.37;;;30.10;59.40;;;;;;5048628;28;20441;-87
2021/07/30 16:25:58;;;;;;;8.83;7.93;;;30.10;60.00;;;;;;5050287;28;20801;-88
2021/07/30 16:28:25;;;;;;;8.40;7.70;;;29.90;60.60;;;;;;5047241;28;20492;-87
2021/07/30 16:30:52;;;;;;;7.83;7.27;;;29.80;60.60;;;;;;5046879;28;20444;-87
2021/07/30 16:33:19;;;;;;;7.87;7.27;;;29.60;61.40;;;;;;5047279;28;20440;-88
2021/07/30 16:35:45;;;;;;;8.43;7.63;;;29.50;61.60;;;;;;5053124;28;20475;-88
2021/07/30 16:38:12;;;;;;;7.90;7.30;;;29.30;62.20;;;;;;5064849;28;20439;-88
2021/07/30 16:40:39;;;;;;;7.57;6.87;;;29.20;62.70;;;;;;5057238;28;20967;-88
2021/07/30 16:43:07;;;;;;;7.60;6.90;;;29.10;63.30;;;;;;5068137;28;20440;-88
2021/07/30 16:45:34;;;;;;;8.63;7.80;;;29.00;63.70;;;;;;5063392;28;20552;-87
2021/07/30 16:48:04;;;;;;;8.47;7.47;;;28.90;64.40;;;;;;5057627;28;20969;-87
2021/07/30 16:50:31;;;;;;;9.10;8.30;;;28.80;64.60;;;;;;5049956;28;20437;-88
2021/07/30 16:53:01;;;;;;;7.97;7.17;;;28.70;64.90;;;;;;5068390;28;20437;-88
2021/07/30 16:55:28;;;;;;;7.53;6.87;;;28.70;65.20;;;;;;5062830;28;20451;-87
2021/07/30 16:57:54;;;;;;;8.53;7.83;;;28.60;65.00;;;;;;5067309;28;20528;-88
2021/07/30 17:00:22;;;;;;;9.03;8.17;;;28.60;65.30;;;;;;5061858;28;20434;-87
2021/07/30 17:02:49;;;;;;;9.83;8.10;;;28.60;67.00;;;;;;5072812;28;20436;-87
2021/07/30 17:05:16;;;;;;;9.30;8.40;;;28.50;69.50;;;;;;5052552;28;20480;-87
2021/07/30 17:07:43;;;;;;;11.47;9.10;;;28.40;70.60;;;;;;5054086;28;20512;-86
2021/07/30 17:10:11;;;;;;;16.30;9.90;;;28.30;74.80;;;;;;5057095;28;20437;-86
2021/07/30 17:12:38;;;;;;;14.77;12.67;;;28.00;82.30;;;;;;5072065;28;20432;-87
2021/07/30 17:15:07;;;;;;;14.93;12.57;;;27.60;88.80;;;;;;5072148;28;20496;-87
2021/07/30 17:17:35;;;;;;;15.80;12.63;;;27.30;90.80;;;;;;5073440;28;20487;-87
2021/07/30 17:20:02;;;;;;;9.30;8.50;;;27.00;92.20;;;;;;5073436;28;20448;-88
2021/07/30 17:22:29;;;;;;;12.80;10.70;;;26.90;91.30;;;;;;5062976;28;20458;-87
2021/07/30 17:24:56;;;;;;;16.17;11.10;;;26.80;92.90;;;;;;5070420;28;20484;-87
2021/07/30 17:27:23;;;;;;;11.97;9.53;;;26.70;93.30;;;;;;5068342;28;20421;-89
2021/07/30 17:29:50;;;;;;;10.17;9.30;;;26.50;92.60;;;;;;5051113;28;20439;-88
2021/07/30 17:32:17;;;;;;;10.97;10.03;;;26.20;93.30;;;;;;5053913;28;20522;-87
2021/07/30 17:34:45;;;;;;;10.80;9.60;;;25.90;94.10;;;;;;5056140;28;20472;-87
2021/07/30 17:37:12;;;;;;;10.47;9.57;;;25.60;95.40;;;;;;5046279;28;20451;-88
2021/07/30 17:39:39;;;;;;;11.20;10.13;;;25.40;96.00;;;;;;5058462;28;20445;-88
2021/07/30 17:42:05;;;;;;;11.33;9.40;;;25.30;96.10;;;;;;5051439;28;20434;-87
2021/07/30 17:44:32;;;;;;;9.80;9.00;;;25.10;96.00;;;;;;5051254;28;20485;-87
2021/07/30 17:46:59;;;;;;;9.37;8.30;;;24.90;96.70;;;;;;5046789;23;20509;-89
2021/07/30 17:49:26;;;;;;;11.37;10.37;;;24.80;96.90;;;;;;5014841;28;21196;-89
2021/07/30 17:51:55;;;;;;;10.30;9.40;;;24.60;98.00;;;;;;5006948;28;21022;-90
2021/07/30 17:54:22;;;;;;;11.13;10.03;;;24.60;99.50;;;;;;5006125;28;20954;-90
2021/07/30 17:56:48;;;;;;;11.20;10.17;;;24.70;99.50;;;;;;5003267;28;20466;-89
2021/07/30 17:59:15;;;;;;;11.90;8.73;;;24.60;99.90;;;;;;5015804;28;20446;-90
2021/07/30 18:01:42;;;;;;;11.40;10.23;;;24.50;99.90;;;;;;5004271;28;20443;-88
2021/07/30 18:04:09;;;;;;;12.20;10.53;;;24.40;99.90;;;;;;5004967;28;20490;-90
2021/07/30 18:06:36;;;;;;;10.43;9.47;;;24.50;99.90;;;;;;5003151;28;20862;-88
2021/07/30 18:09:04;;;;;;;11.17;10.07;;;24.40;99.90;;;;;;5003173;28;20442;-87
2021/07/30 18:11:31;;;;;;;13.33;8.67;;;24.40;99.90;;;;;;5004861;28;20446;-88
2021/07/30 18:13:58;;;;;;;9.83;8.83;;;24.30;99.90;;;;;;5006071;28;20442;-89
2021/07/30 18:16:27;;;;;;;8.70;7.90;;;24.30;99.90;;;;;;5005936;28;21006;-89
2021/07/30 18:18:54;;;;;;;7.63;6.93;;;24.20;99.90;;;;;;5005653;28;20457;-88
2021/07/30 18:21:22;;;;;;;8.63;7.70;;;23.90;99.90;;;;;;5004456;28;20813;-89
2021/07/30 18:23:49;;;;;;;7.47;6.83;;;23.70;99.90;;;;;;5020938;28;20462;-90
2021/07/30 18:26:18;;;;;;;8.03;7.33;;;23.60;99.90;;;;;;5008355;28;20504;-88
2021/07/30 18:28:46;;;;;;;9.10;8.30;;;23.60;99.90;;;;;;5006929;28;20529;-89
2021/07/30 18:31:13;;;;;;;7.97;7.23;;;23.60;99.90;;;;;;5003255;28;20453;-89
2021/07/30 18:33:40;;;;;;;9.57;8.63;;;23.60;99.90;;;;;;5013444;28;20441;-89
2021/07/30 18:36:07;;;;;;;10.43;8.37;;;23.60;99.90;;;;;;5015414;28;20461;-90
2021/07/30 18:38:33;;;;;;;8.30;7.60;;;23.70;99.90;;;;;;5005718;28;20443;-90
2021/07/30 18:41:00;;;;;;;7.17;6.67;;;23.70;99.90;;;;;;5004946;28;20438;-89
2021/07/30 18:43:28;;;;;;;8.27;7.43;;;23.70;99.90;;;;;;5005378;28;20446;-90
2021/07/30 18:45:55;;;;;;;7.43;6.73;;;23.70;99.90;;;;;;5013219;28;20485;-89
2021/07/30 18:48:21;;;;;;;7.63;6.83;;;23.60;99.90;;;;;;5008314;28;20445;-89
2021/07/30 18:50:48;;;;;;;7.77;7.07;;;23.50;99.90;;;;;;5000061;28;20455;-88
2021/07/30 18:53:15;;;;;;;7.20;6.23;;;23.40;99.90;;;;;;5004565;28;20511;-88
2021/07/30 18:55:41;;;;;;;7.90;7.10;;;23.30;99.90;;;;;;5001487;28;20453;-89
2021/07/30 18:58:13;;;;;;;8.13;7.43;;;23.30;99.90;;;;;;5004062;28;20462;-89
2021/07/30 19:00:41;;;;;;;12.07;8.30;;;23.30;99.90;;;;;;5001296;28;20791;-88
2021/07/30 19:03:09;;;;;;;9.00;8.20;;;23.50;99.90;;;;;;4996712;28;20458;-88
2021/07/30 19:05:37;;;;;;;8.63;7.83;;;23.50;99.90;;;;;;5001041;28;20478;-88
2021/07/30 19:16:03;;;;;;;7.67;6.97;;;23.40;99.90;;;;;;5044889;28;20444;-86
2021/07/30 19:22:24;;;;;;;8.27;7.57;;;23.10;99.90;;;;;;5016652;28;20511;-85
2021/07/30 19:24:51;;;;;;;6.80;6.20;;;23.10;99.90;;;;;;5009457;28;20505;-85
2021/07/30 19:27:17;;;;;;;8.70;7.77;;;23.00;99.90;;;;;;5024923;28;20471;-85
2021/07/30 19:29:44;;;;;;;8.60;7.70;;;22.90;99.90;;;;;;5014407;28;20950;-86
2021/07/30 19:32:14;;;;;;;9.27;8.27;;;22.80;99.90;;;;;;5010831;28;20447;-87
2021/07/30 19:34:42;;;;;;;9.93;7.90;;;22.80;99.90;;;;;;5015267;28;20452;-86
2021/07/30 19:37:09;;;;;;;8.60;7.80;;;22.80;99.90;;;;;;5024046;28;20461;-87